Piermont, New Hampshire
Current Conditions -  °F | °C
As of 11:15 PM on Wednesday 28 Jan 2015 (Local Time) from K1P1 Reporting Station
Clear Clear  
Wind Chill: -1°   Ceiling: Unl
Heat Index: 13°   Visibility: 10mi
Dew Point:   Wind: 12mph
Humidity: 57%   Direction: 300°WNW
Pressure: 30.2"   Gusts: NA
Location:  43.97°N, 72.08°W
Report Text: K1P1 290415Z AUTO 30010KT 10SM CLR M11/M18 A3020 RMK AO2 T11061177
Loading
Personal Weather Stations






























Interactive Weather Map New forecast layout! Learn more

10-Day Weather Forecast

Advertisements
Track Severe Weather on mobile